Time;durP1;ratioP1;P1;durP2;ratioP2;P2;SDS_P1;SDS_P2;PMS_P1;PMS_P2;Temp;Humidity;BMP_temperature;BMP_pressure;BME280_temperature;BME280_humidity;BME280_pressure;Samples;Min_cycle;Max_cycle;Signal;HPM_P1;HPM_P2
2023/10/01 00:02:13;;;;;;;6.90;3.20;;;11.20;99.90;;;12.18;100.00;99115.22;5016947;28;20447;-79
2023/10/01 00:04:44;;;;;;;11.30;4.20;;;11.20;99.90;;;12.18;100.00;99112.59;5017207;28;20490;-79
2023/10/01 00:07:15;;;;;;;12.03;4.50;;;11.10;99.90;;;12.05;100.00;99128.03;5019923;28;20457;-78
2023/10/01 00:09:47;;;;;;;5.93;3.60;;;11.10;99.90;;;12.00;100.00;99130.34;5020304;28;20464;-80
2023/10/01 00:12:18;;;;;;;32.83;4.83;;;11.00;99.90;;;11.85;100.00;99129.41;5020385;28;20453;-79
2023/10/01 00:14:48;;;;;;;7.60;3.60;;;11.00;99.90;;;11.81;100.00;99133.34;5021215;28;20470;-79
2023/10/01 00:17:20;;;;;;;8.03;3.97;;;11.00;99.90;;;11.84;100.00;99139.06;5021807;28;20453;-80
2023/10/01 00:19:50;;;;;;;10.27;4.17;;;11.00;99.90;;;11.87;100.00;99130.88;5021781;28;20585;-79
2023/10/01 00:22:20;;;;;;;7.23;3.73;;;10.90;99.90;;;11.89;100.00;99128.09;5021615;28;20953;-79
2023/10/01 00:24:52;;;;;;;17.30;4.03;;;11.00;99.90;;;11.93;100.00;99129.38;5022682;28;20439;-80
2023/10/01 00:27:23;;;;;;;8.43;3.57;;;11.00;99.90;;;11.80;100.00;99127.28;5022580;28;21259;-79
2023/10/01 00:29:53;;;;;;;8.10;4.20;;;11.00;99.90;;;11.70;100.00;99123.22;5021335;28;20474;-79
2023/10/01 00:32:23;;;;;;;7.87;3.53;;;10.90;99.90;;;11.66;100.00;99122.72;5022716;28;20513;-79
2023/10/01 00:34:55;;;;;;;12.33;4.50;;;10.80;99.90;;;11.71;100.00;99120.44;5022283;28;20446;-80
2023/10/01 00:37:28;;;;;;;6.97;2.93;;;10.80;99.90;;;11.77;100.00;99119.75;5022088;28;20534;-80
2023/10/01 00:40:01;;;;;;;5.33;3.13;;;10.70;99.90;;;11.77;100.00;99118.94;5022306;28;20479;-80
2023/10/01 00:42:34;;;;;;;8.90;3.67;;;10.80;99.90;;;11.73;100.00;99118.44;5021436;28;20466;-79
2023/10/01 00:45:07;;;;;;;5.53;3.20;;;10.70;99.90;;;11.74;100.00;99114.84;5020188;28;20444;-79
2023/10/01 00:47:40;;;;;;;7.60;3.73;;;10.70;99.90;;;11.67;100.00;99110.41;5021426;28;20468;-79
2023/10/01 00:50:15;;;;;;;7.83;3.50;;;10.70;99.90;;;11.65;100.00;99118.47;5023048;28;20559;-80
2023/10/01 00:52:49;;;;;;;9.57;3.53;;;10.80;99.90;;;11.63;100.00;99111.75;5021029;28;20457;-79
2023/10/01 00:55:21;;;;;;;11.60;4.33;;;10.80;99.90;;;11.66;100.00;99114.03;5018733;28;20502;-79
2023/10/01 00:57:53;;;;;;;6.30;3.60;;;10.70;99.90;;;11.61;100.00;99117.16;5019199;28;20447;-80
2023/10/01 01:00:25;;;;;;;7.30;3.40;;;10.70;99.90;;;11.59;100.00;99111.28;5020269;28;20441;-80
2023/10/01 01:03:05;;;;;;;6.30;3.97;;;10.80;99.90;;;11.55;100.00;99104.72;5019409;28;21134;-79
2023/10/01 01:05:37;;;;;;;7.60;3.87;;;10.70;99.90;;;11.50;100.00;99097.38;5018575;28;21165;-79
2023/10/01 01:08:20;;;;;;;7.20;3.67;;;10.50;99.90;;;11.51;100.00;99091.16;5020962;28;20532;-79
2023/10/01 01:10:54;;;;;;;8.20;3.70;;;10.50;99.90;;;11.55;100.00;99095.06;5019014;28;22045;-79
2023/10/01 01:13:28;;;;;;;6.87;3.27;;;10.60;99.90;;;11.55;100.00;99100.31;5018611;28;20453;-79
2023/10/01 01:16:00;;;;;;;8.40;4.13;;;10.50;99.90;;;11.57;100.00;99097.50;5020158;28;20937;-79
2023/10/01 01:18:34;;;;;;;8.60;3.37;;;10.40;99.90;;;11.52;100.00;99103.25;5020172;28;20510;-80
2023/10/01 01:21:09;;;;;;;7.90;4.17;;;10.30;99.90;;;11.38;100.00;99093.47;5021839;28;20840;-79
2023/10/01 01:23:42;;;;;;;19.23;3.70;;;10.30;99.90;;;11.28;100.00;99095.41;5019734;28;20838;-78
2023/10/01 01:26:13;;;;;;;9.70;3.37;;;10.30;99.90;;;11.33;100.00;99093.13;5020995;28;20498;-79
2023/10/01 01:28:43;;;;;;;8.70;4.07;;;10.30;99.90;;;11.38;100.00;99083.00;5018704;28;20439;-79
2023/10/01 01:31:13;;;;;;;9.10;4.10;;;10.30;99.90;;;11.33;100.00;99090.53;5022006;28;20549;-79
2023/10/01 01:33:44;;;;;;;9.10;3.90;;;10.30;99.90;;;11.31;100.00;99102.16;5020806;28;20450;-79
2023/10/01 01:36:13;;;;;;;5.87;3.17;;;10.20;99.90;;;11.30;100.00;99098.72;5021447;28;20450;-79
2023/10/01 01:39:12;;;;;;;9.20;3.53;;;10.20;99.90;;;11.24;100.00;99096.75;5022020;28;20494;-79
2023/10/01 01:41:43;;;;;;;7.37;3.20;;;10.20;99.90;;;11.19;100.00;99099.03;5020561;28;21059;-79
2023/10/01 01:44:14;;;;;;;5.60;3.23;;;10.20;99.90;;;11.25;100.00;99100.16;5019284;28;20448;-79
2023/10/01 01:46:48;;;;;;;6.10;3.67;;;10.20;99.90;;;11.21;100.00;99097.06;5021009;28;20454;-79
2023/10/01 01:49:20;;;;;;;14.27;3.47;;;10.20;99.90;;;11.23;100.00;99097.72;5021719;28;20481;-79
2023/10/01 01:54:40;;;;;;;7.77;3.50;;;10.30;99.90;;;11.19;100.00;99099.03;5019312;28;20445;-79
2023/10/01 01:57:14;;;;;;;8.90;3.23;;;10.30;99.90;;;11.07;100.00;99100.38;5017923;28;20446;-79
2023/10/01 01:59:44;;;;;;;5.00;2.83;;;10.20;99.90;;;10.95;100.00;99097.25;5018566;28;20988;-78
2023/10/01 02:02:14;;;;;;;6.00;3.50;;;10.10;99.90;;;10.95;100.00;99086.78;5017992;28;21225;-79
2023/10/01 02:07:41;;;;;;;12.60;3.77;;;10.00;99.90;;;10.93;100.00;99087.94;5070905;27;20578;-80
2023/10/01 02:10:12;;;;;;;5.27;3.17;;;9.90;99.90;;;10.95;100.00;99086.78;5053555;28;20530;-80
2023/10/01 02:12:43;;;;;;;8.17;3.37;;;10.00;99.90;;;10.95;100.00;99089.41;5053784;28;20442;-80
2023/10/01 02:15:14;;;;;;;5.67;3.33;;;10.00;99.90;;;10.97;100.00;99094.44;5052079;28;20514;-80
2023/10/01 02:17:45;;;;;;;6.93;3.43;;;10.00;99.90;;;10.99;100.00;99082.88;5052722;28;20448;-80
2023/10/01 02:20:27;;;;;;;8.17;3.43;;;10.00;99.90;;;10.98;100.00;99086.44;5053967;28;20463;-80
2023/10/01 02:23:02;;;;;;;5.03;2.93;;;10.00;99.90;;;10.86;100.00;99084.34;5050072;28;20432;-80
2023/10/01 02:25:38;;;;;;;6.53;3.50;;;10.00;99.90;;;10.82;100.00;99085.63;5049318;28;20523;-80
2023/10/01 02:28:13;;;;;;;8.23;3.87;;;9.90;99.90;;;10.81;100.00;99084.00;5050409;28;20962;-80
2023/10/01 02:30:44;;;;;;;9.03;3.87;;;9.80;99.90;;;10.83;100.00;99076.81;5052564;28;20448;-80
2023/10/01 02:33:17;;;;;;;5.13;3.30;;;9.80;99.90;;;10.88;100.00;99077.13;5051449;28;20841;-80
2023/10/01 02:35:50;;;;;;;6.20;3.33;;;9.80;99.90;;;10.86;100.00;99069.47;5051793;28;20435;-79
2023/10/01 02:38:45;;;;;;;6.60;3.40;;;9.70;99.90;;;10.79;100.00;99076.31;5049908;28;20532;-80
2023/10/01 02:41:15;;;;;;;7.83;3.13;;;9.80;99.90;;;10.78;100.00;99066.00;5049278;28;20452;-80
2023/10/01 02:43:45;;;;;;;7.30;3.50;;;9.70;99.90;;;10.81;100.00;99060.44;5052371;28;20514;-79
2023/10/01 02:46:15;;;;;;;9.33;3.37;;;9.70;99.90;;;10.83;100.00;99064.53;5049318;28;21593;-80
2023/10/01 02:48:47;;;;;;;11.07;3.97;;;9.70;99.90;;;10.75;100.00;99061.94;5050283;28;20441;-80
2023/10/01 02:51:32;;;;;;;6.00;3.10;;;9.80;99.90;;;10.67;100.00;99058.47;5049102;28;20438;-80
2023/10/01 02:54:04;;;;;;;6.80;3.53;;;9.70;99.90;;;10.76;100.00;99065.38;5049462;28;20455;-81
2023/10/01 02:56:37;;;;;;;5.90;2.90;;;9.80;99.90;;;10.68;100.00;99066.16;5049462;28;20917;-80
2023/10/01 02:59:12;;;;;;;8.87;4.20;;;9.50;99.90;;;10.67;100.00;99054.06;5051265;28;20482;-80
2023/10/01 03:01:45;;;;;;;4.60;2.73;;;9.70;99.90;;;10.71;100.00;99052.75;5049656;28;20453;-80
2023/10/01 03:04:16;;;;;;;7.60;3.30;;;9.70;99.90;;;10.75;100.00;99058.50;5047269;28;20456;-80
2023/10/01 03:06:52;;;;;;;6.50;3.10;;;9.70;99.90;;;10.72;100.00;99059.63;5050012;28;20493;-80
2023/10/01 03:09:31;;;;;;;6.50;2.80;;;9.70;99.90;;;10.68;100.00;99054.88;5049931;28;20959;-80
2023/10/01 03:12:34;;;;;;;11.43;3.50;;;9.70;99.90;;;10.59;100.00;99056.66;5049352;28;20472;-80
2023/10/01 03:15:24;;;;;;;9.93;3.60;;;9.70;99.90;;;10.56;100.00;99054.38;5051137;28;21010;-80
2023/10/01 03:17:57;;;;;;;7.93;3.00;;;9.70;99.90;;;10.49;100.00;99048.97;5045148;28;21194;-79
2023/10/01 03:23:25;;;;;;;4.70;3.00;;;9.70;99.90;;;10.59;100.00;99054.88;5037677;28;20474;-81
2023/10/01 03:26:00;;;;;;;5.23;3.40;;;9.70;99.90;;;10.52;100.00;99043.41;5035297;28;20491;-79
2023/10/01 03:28:35;;;;;;;5.50;3.07;;;9.60;99.90;;;10.51;100.00;99052.25;5037385;28;20452;-80
2023/10/01 03:31:08;;;;;;;8.80;3.43;;;9.50;99.90;;;10.48;100.00;99049.16;5038583;28;20820;-80
2023/10/01 03:33:39;;;;;;;7.50;3.30;;;9.60;99.90;;;10.40;100.00;99047.34;5035843;28;20439;-80
2023/10/01 03:36:11;;;;;;;5.77;3.33;;;9.60;99.90;;;10.42;100.00;99047.97;5035582;28;20856;-80
2023/10/01 03:38:43;;;;;;;7.97;3.80;;;9.60;99.90;;;10.37;100.00;99042.44;5036330;28;20445;-80
2023/10/01 03:41:22;;;;;;;8.33;3.37;;;9.50;99.90;;;10.41;100.00;99041.09;5037309;28;20475;-80
2023/10/01 03:43:56;;;;;;;7.83;3.50;;;9.50;99.90;;;10.41;100.00;99035.88;5034299;28;20457;-80
2023/10/01 03:46:26;;;;;;;9.13;3.53;;;9.40;99.90;;;10.37;100.00;99031.97;5036176;28;20484;-80
2023/10/01 03:49:00;;;;;;;7.87;2.90;;;9.50;99.90;;;10.40;100.00;99042.09;5034365;28;20443;-80
2023/10/01 03:54:16;;;;;;;8.70;3.60;;;9.40;99.90;;;10.28;100.00;99027.69;5036432;28;20445;-80
2023/10/01 03:56:56;;;;;;;5.57;3.10;;;9.40;99.90;;;10.30;100.00;99022.31;5034853;28;20945;-80
2023/10/01 03:59:27;;;;;;;5.70;3.60;;;9.30;99.90;;;10.34;100.00;99026.25;5036723;28;20434;-80
2023/10/01 04:02:02;;;;;;;10.87;3.83;;;9.40;99.90;;;10.35;100.00;99027.88;5035255;28;20442;-80
2023/10/01 04:04:56;;;;;;;7.40;3.57;;;9.30;99.90;;;10.33;100.00;99035.88;5035105;28;20460;-79
2023/10/01 04:07:26;;;;;;;7.27;2.93;;;9.30;99.90;;;10.36;100.00;99032.13;5033862;28;20493;-80
2023/10/01 04:09:57;;;;;;;8.90;3.40;;;9.30;99.90;;;10.30;100.00;99038.00;5034394;28;20446;-80
2023/10/01 04:12:32;;;;;;;4.80;2.53;;;9.30;99.90;;;10.27;100.00;99041.75;5034569;28;20553;-79
2023/10/01 04:15:04;;;;;;;6.50;3.30;;;9.30;99.90;;;10.33;100.00;99048.97;5037296;28;20508;-80
2023/10/01 04:17:36;;;;;;;5.37;3.23;;;9.30;99.90;;;10.31;100.00;99045.66;5036792;28;20445;-79
2023/10/01 04:20:13;;;;;;;9.30;3.10;;;9.30;99.90;;;10.33;100.00;99043.72;5036392;28;20516;-80
2023/10/01 04:22:44;;;;;;;6.00;2.93;;;9.30;99.90;;;10.28;100.00;99040.75;5037240;28;20453;-80
2023/10/01 04:25:14;;;;;;;7.00;3.03;;;9.30;99.90;;;10.25;100.00;99046.31;5036438;28;20533;-80
2023/10/01 04:27:45;;;;;;;7.20;3.07;;;9.40;99.90;;;10.24;100.00;99047.28;5034107;28;20494;-79
2023/10/01 04:30:15;;;;;;;6.10;3.33;;;9.20;99.90;;;10.25;100.00;99038.47;5034390;28;20795;-80
2023/10/01 04:32:46;;;;;;;6.77;3.07;;;9.30;99.90;;;10.15;100.00;99040.41;5034117;28;20553;-79
2023/10/01 04:35:17;;;;;;;7.83;3.17;;;9.30;99.90;;;10.10;100.00;99037.41;5032959;28;20545;-80
2023/10/01 04:37:51;;;;;;;5.90;2.97;;;9.30;99.90;;;10.12;100.00;99045.94;5031180;28;20492;-80
2023/10/01 04:40:39;;;;;;;3.50;2.80;;;9.20;99.90;;;10.15;100.00;99048.25;5029501;28;21105;-79
2023/10/01 04:43:11;;;;;;;7.87;3.90;;;9.20;99.90;;;10.10;100.00;99047.88;5032105;28;20455;-80
2023/10/01 04:45:41;;;;;;;7.20;2.90;;;9.20;99.90;;;10.06;100.00;99052.63;5030944;28;20480;-79
2023/10/01 04:48:15;;;;;;;8.47;3.17;;;9.20;99.90;;;10.07;100.00;99061.25;5031449;28;20505;-80
2023/10/01 04:50:49;;;;;;;7.67;3.10;;;9.10;99.90;;;10.09;100.00;99062.75;5030888;28;20530;-80
2023/10/01 04:53:20;;;;;;;6.70;3.63;;;9.10;99.90;;;10.07;100.00;99058.66;5032663;28;20465;-80
2023/10/01 04:56:00;;;;;;;7.10;3.63;;;9.20;99.90;;;10.05;100.00;99065.84;5039680;28;21513;-79
2023/10/01 04:58:36;;;;;;;6.13;3.10;;;9.20;99.90;;;10.07;100.00;99064.69;5035377;28;20457;-80
2023/10/01 05:01:11;;;;;;;6.20;3.43;;;9.10;99.90;;;10.04;100.00;99069.41;5034988;28;20462;-79
2023/10/01 05:03:44;;;;;;;6.30;3.17;;;9.10;99.90;;;10.01;100.00;99070.56;5034485;28;20464;-79
2023/10/01 05:06:19;;;;;;;5.33;2.80;;;9.00;99.90;;;9.98;100.00;99070.06;5030513;28;20474;-80
2023/10/01 05:08:53;;;;;;;6.30;3.23;;;9.00;99.90;;;10.01;100.00;99078.41;5032638;28;20555;-79
2023/10/01 05:11:29;;;;;;;6.50;2.80;;;8.90;99.90;;;10.07;100.00;99074.31;5034257;28;20860;-79
2023/10/01 05:14:04;;;;;;;5.40;3.13;;;9.00;99.90;;;10.05;100.00;99066.66;5031595;28;20596;-80
2023/10/01 05:16:38;;;;;;;6.00;3.67;;;9.00;99.90;;;10.07;100.00;99069.91;5033566;28;21543;-80
2023/10/01 05:19:10;;;;;;;8.10;3.57;;;9.00;99.90;;;10.05;100.00;99055.38;5033368;28;20629;-80
2023/10/01 05:21:46;;;;;;;9.90;3.63;;;9.00;99.90;;;10.02;100.00;99063.53;5034625;28;21155;-80
2023/10/01 05:24:34;;;;;;;4.83;3.20;;;9.10;99.90;;;10.04;100.00;99066.81;5033998;28;20547;-80
2023/10/01 05:27:08;;;;;;;10.33;4.07;;;9.00;99.90;;;10.02;100.00;99063.53;5033921;28;20462;-80
2023/10/01 05:29:42;;;;;;;7.63;3.40;;;9.00;99.90;;;10.00;100.00;99065.47;5033441;28;20454;-79
2023/10/01 05:32:12;;;;;;;6.53;3.27;;;9.00;99.90;;;10.03;100.00;99078.25;5032637;28;20482;-79
2023/10/01 05:34:42;;;;;;;10.47;3.30;;;8.90;99.90;;;9.98;100.00;99076.09;5032793;28;20465;-79
2023/10/01 05:37:20;;;;;;;5.53;3.20;;;8.90;99.90;;;9.94;100.00;99074.78;5032615;28;20461;-80
2023/10/01 05:39:55;;;;;;;4.70;2.90;;;8.80;99.90;;;9.91;100.00;99080.31;5034040;28;20837;-78
2023/10/01 05:42:28;;;;;;;8.80;3.30;;;8.90;99.90;;;9.90;100.00;99083.06;5031599;28;20469;-78
2023/10/01 05:45:00;;;;;;;7.47;3.83;;;8.90;99.90;;;9.90;100.00;99077.84;5028074;28;20461;-79
2023/10/01 05:47:45;;;;;;;6.00;3.10;;;8.80;99.90;;;9.90;100.00;99077.84;5027187;28;20493;-78
2023/10/01 05:50:18;;;;;;;7.50;2.97;;;8.70;99.90;;;9.87;100.00;99079.00;5030088;28;20457;-80
2023/10/01 05:52:47;;;;;;;9.10;3.40;;;8.80;99.90;;;9.87;100.00;99089.44;5029936;28;20474;-80
2023/10/01 05:55:16;;;;;;;5.17;2.87;;;8.70;99.90;;;9.89;100.00;99092.69;5029259;28;20580;-80
2023/10/01 05:57:50;;;;;;;6.90;3.30;;;8.70;99.90;;;9.89;100.00;99097.13;5029007;28;20460;-79
2023/10/01 06:00:27;;;;;;;7.43;3.30;;;8.70;99.90;;;9.77;100.00;99100.97;5028487;28;20539;-80
2023/10/01 06:03:01;;;;;;;8.83;3.03;;;8.90;99.90;;;9.75;100.00;99095.09;5029248;28;21016;-78
2023/10/01 06:05:42;;;;;;;8.00;3.10;;;8.90;99.90;;;9.81;100.00;99097.91;5028563;28;20476;-78
2023/10/01 06:08:15;;;;;;;8.07;4.00;;;8.80;99.90;;;9.85;100.00;99099.25;5029631;28;20507;-77
2023/10/01 06:10:59;;;;;;;6.90;3.20;;;8.90;99.90;;;9.84;100.00;99104.59;5029461;28;20469;-78
2023/10/01 06:13:29;;;;;;;6.07;2.83;;;8.80;99.90;;;9.87;100.00;99102.50;5030673;28;20463;-79
2023/10/01 06:16:11;;;;;;;5.87;3.03;;;8.90;99.90;;;9.91;100.00;99108.25;5033806;28;20465;-78
2023/10/01 06:18:49;;;;;;;5.63;2.87;;;8.80;99.90;;;9.93;100.00;99108.88;5033408;28;20454;-79
2023/10/01 06:21:23;;;;;;;4.93;3.10;;;8.80;99.90;;;9.96;100.00;99096.31;5030961;28;20465;-78
2023/10/01 06:23:58;;;;;;;5.67;3.77;;;8.80;99.90;;;9.94;100.00;99103.53;5031209;28;20552;-79
2023/10/01 06:26:33;;;;;;;7.37;3.53;;;8.90;99.90;;;9.95;100.00;99091.28;5029930;28;20458;-80
2023/10/01 06:29:03;;;;;;;6.00;3.13;;;8.90;99.90;;;9.91;100.00;99097.78;5029305;28;20481;-81
2023/10/01 06:31:48;;;;;;;7.77;3.50;;;9.00;99.90;;;9.93;100.00;99099.25;5030994;28;20460;-80
2023/10/01 06:34:21;;;;;;;8.23;3.80;;;8.90;99.90;;;9.93;100.00;99086.19;5030017;28;20931;-80
2023/10/01 06:36:57;;;;;;;9.27;4.23;;;8.90;99.90;;;9.87;100.00;99088.63;5030710;28;20454;-78
2023/10/01 06:39:30;;;;;;;5.10;3.13;;;8.80;99.90;;;9.92;100.00;99091.59;5032389;28;20544;-78
2023/10/01 06:44:44;;;;;;;5.63;2.90;;;8.90;99.90;;;9.95;100.00;99096.50;5032374;28;20473;-79
2023/10/01 06:47:16;;;;;;;7.53;2.97;;;9.00;99.90;;;9.99;100.00;99092.59;5032121;28;20468;-80
2023/10/01 06:50:00;;;;;;;6.73;3.20;;;9.00;99.90;;;10.00;100.00;99097.66;5029402;28;20500;-80
2023/10/01 06:52:32;;;;;;;8.10;3.80;;;9.00;99.90;;;10.00;100.00;99099.44;5030086;28;20471;-79
2023/10/01 06:55:03;;;;;;;7.53;3.57;;;9.10;99.90;;;10.01;100.00;99101.09;5035058;28;20876;-79
2023/10/01 06:57:33;;;;;;;6.00;3.23;;;9.10;99.90;;;10.02;100.00;99100.13;5034256;28;20458;-79
2023/10/01 07:00:12;;;;;;;11.33;4.00;;;9.10;99.90;;;10.06;100.00;99097.06;5035006;28;20522;-80
2023/10/01 07:02:44;;;;;;;8.37;3.60;;;9.00;99.90;;;10.12;100.00;99100.81;5031897;28;20468;-79
2023/10/01 07:05:20;;;;;;;6.17;3.30;;;9.10;99.90;;;10.10;100.00;99103.56;5034030;28;20967;-79
2023/10/01 07:07:49;;;;;;;8.40;3.53;;;9.10;99.90;;;10.11;100.00;99101.78;5033799;28;20454;-79
2023/10/01 07:10:21;;;;;;;8.07;3.90;;;9.10;99.90;;;10.15;100.00;99100.53;5031999;28;20794;-79
2023/10/01 07:13:04;;;;;;;18.70;4.33;;;9.20;99.90;;;10.22;100.00;99096.31;5032333;28;20466;-79
2023/10/01 07:15:40;;;;;;;11.67;4.23;;;9.20;99.90;;;10.27;100.00;99095.84;5034881;28;20822;-80
2023/10/01 07:18:15;;;;;;;6.80;3.80;;;9.30;99.90;;;10.30;100.00;99098.13;5033083;28;20461;-79
2023/10/01 07:20:49;;;;;;;5.20;2.93;;;9.30;99.90;;;10.34;100.00;99092.44;5034201;28;20480;-80
2023/10/01 07:23:21;;;;;;;5.20;3.53;;;9.40;99.90;;;10.32;100.00;99088.31;5033110;28;20506;-80
2023/10/01 07:26:00;;;;;;;5.90;3.37;;;9.40;99.90;;;10.36;100.00;99092.25;5032019;28;20541;-78
2023/10/01 07:28:30;;;;;;;7.03;3.37;;;9.50;99.90;;;10.35;100.00;99094.06;5034563;28;20560;-80
2023/10/01 07:31:02;;;;;;;7.73;3.47;;;9.50;99.90;;;10.38;100.00;99093.72;5033324;28;20949;-80
2023/10/01 07:33:34;;;;;;;5.57;2.93;;;9.50;99.90;;;10.43;100.00;99090.63;5032940;28;20472;-80
2023/10/01 07:36:10;;;;;;;12.40;3.67;;;9.50;99.90;;;10.44;100.00;99082.66;5032894;28;20458;-79
2023/10/01 07:41:28;;;;;;;11.50;3.80;;;9.60;99.90;;;10.60;100.00;99090.50;5033290;28;20557;-79
2023/10/01 07:44:07;;;;;;;4.60;3.00;;;9.70;99.90;;;10.64;100.00;99082.34;5030420;28;20470;-79
2023/10/01 07:46:37;;;;;;;6.53;3.67;;;9.80;99.90;;;10.67;100.00;99082.84;5032100;28;20471;-80
2023/10/01 07:49:10;;;;;;;8.70;5.20;;;9.80;99.90;;;10.73;100.00;99086.59;5029020;28;21000;-80
2023/10/01 07:51:44;;;;;;;9.10;4.43;;;9.90;99.90;;;10.80;100.00;99077.13;5034709;28;20982;-79
2023/10/01 07:54:22;;;;;;;7.03;3.00;;;9.90;99.90;;;10.86;100.00;99087.78;5035147;28;20460;-80
2023/10/01 07:56:56;;;;;;;6.93;3.90;;;9.90;99.90;;;10.93;100.00;99090.56;5035172;28;20464;-79
2023/10/01 07:59:34;;;;;;;8.30;3.80;;;10.00;99.90;;;10.95;100.00;99088.56;5035000;28;20580;-79
2023/10/01 08:02:13;;;;;;;7.60;3.73;;;10.00;99.90;;;11.01;100.00;99085.28;5030442;28;20496;-81
2023/10/01 08:04:59;;;;;;;8.33;3.83;;;10.10;99.90;;;11.07;100.00;99084.66;5035511;28;20914;-80
2023/10/01 08:07:39;;;;;;;8.50;3.43;;;10.10;99.90;;;11.13;100.00;99094.47;5030659;28;20955;-78
2023/10/01 08:10:19;;;;;;;10.97;3.93;;;10.20;99.90;;;11.22;100.00;99095.25;5033104;28;20512;-80
2023/10/01 08:13:07;;;;;;;9.10;4.60;;;10.30;99.90;;;11.25;100.00;99087.91;5031850;28;20473;-79
2023/10/01 08:15:39;;;;;;;7.33;4.20;;;10.30;99.90;;;11.31;100.00;99089.88;5031486;28;20466;-79
2023/10/01 08:18:34;;;;;;;5.33;3.20;;;10.40;99.90;;;11.38;100.00;99083.00;4976743;28;20536;-79
2023/10/01 08:21:15;;;;;;;7.23;3.77;;;10.50;99.90;;;11.45;100.00;99081.31;4997958;28;20471;-79
2023/10/01 08:23:48;;;;;;;7.17;4.17;;;10.50;99.90;;;11.51;100.00;99079.84;4998278;28;20466;-79
2023/10/01 08:29:07;;;;;;;7.40;3.00;;;10.60;99.90;;;11.60;100.00;99077.03;4997106;28;20480;-78
2023/10/01 08:34:29;;;;;;;8.40;3.67;;;10.80;99.90;;;11.73;100.00;99080.97;4987564;28;21053;-80
2023/10/01 08:37:06;;;;;;;16.73;5.13;;;10.80;99.90;;;11.79;100.00;99080.28;4996905;28;20549;-79
2023/10/01 08:39:47;;;;;;;8.27;3.87;;;10.90;99.90;;;11.86;100.00;99081.25;4997774;28;20490;-79
2023/10/01 08:42:17;;;;;;;7.90;3.90;;;11.00;99.90;;;11.93;100.00;99076.97;4997219;28;21384;-78
2023/10/01 08:44:50;;;;;;;7.90;3.80;;;11.00;99.90;;;11.99;100.00;99079.72;4995798;28;20464;-79
2023/10/01 08:47:31;;;;;;;10.07;4.70;;;11.10;99.90;;;12.04;100.00;99068.72;4996596;28;20462;-79
2023/10/01 08:52:57;;;;;;;16.70;4.40;;;11.30;99.90;;;12.20;100.00;99071.25;4997565;28;20495;-78
2023/10/01 08:55:40;;;;;;;6.70;4.50;;;11.30;99.90;;;12.25;100.00;99070.75;4995831;28;20470;-79
2023/10/01 08:58:25;;;;;;;34.30;16.53;;;11.40;99.90;;;12.33;100.00;99068.06;4996138;28;20467;-79
2023/10/01 09:01:11;;;;;;;24.30;11.47;;;11.50;99.90;;;12.40;100.00;99064.59;4997306;28;20775;-79
2023/10/01 09:03:47;;;;;;;10.13;5.00;;;11.60;99.90;;;12.49;100.00;99071.44;4997476;28;20521;-79
2023/10/01 09:06:29;;;;;;;27.93;14.07;;;11.70;99.90;;;12.56;100.00;99061.84;4996788;28;20471;-80
2023/10/01 09:09:26;;;;;;;11.13;4.93;;;11.80;99.90;;;12.65;100.00;99061.81;4995475;28;20562;-79
2023/10/01 09:11:58;;;;;;;12.40;4.63;;;11.90;99.90;;;12.75;100.00;99051.88;4991404;28;20468;-79
2023/10/01 09:14:39;;;;;;;65.30;31.60;;;12.00;99.90;;;12.84;100.00;99050.84;4996368;28;20569;-79
2023/10/01 09:17:24;;;;;;;10.60;5.30;;;12.10;99.90;;;12.92;100.00;99053.38;4995021;28;20459;-79
2023/10/01 09:20:06;;;;;;;13.40;5.93;;;12.20;99.90;;;12.99;100.00;99049.88;4999373;28;20490;-79
2023/10/01 09:22:42;;;;;;;8.90;4.63;;;12.20;99.90;;;13.06;100.00;99050.81;4998648;28;20466;-79
2023/10/01 09:25:25;;;;;;;9.97;4.83;;;12.30;99.90;;;13.14;100.00;99047.31;4998922;28;20494;-78
2023/10/01 09:27:58;;;;;;;11.17;5.37;;;12.40;99.90;;;13.22;100.00;99049.06;4998176;28;20552;-79
2023/10/01 09:30:31;;;;;;;11.90;5.77;;;12.50;99.90;;;13.32;100.00;99039.13;5000327;28;20506;-79
2023/10/01 09:33:05;;;;;;;8.47;4.27;;;12.60;99.90;;;13.42;100.00;99042.28;4998798;28;20575;-79
2023/10/01 09:35:49;;;;;;;13.20;4.83;;;12.80;99.90;;;13.49;100.00;99044.03;4999951;28;20508;-79
2023/10/01 09:38:27;;;;;;;8.67;4.30;;;12.90;99.90;;;13.59;100.00;99039.31;4996712;28;20475;-79
2023/10/01 09:41:00;;;;;;;10.10;5.07;;;13.00;99.90;;;13.67;100.00;99040.22;4997812;28;20472;-79
2023/10/01 09:43:35;;;;;;;11.87;5.27;;;13.10;99.90;;;13.75;100.00;99043.53;4997968;28;20475;-79
2023/10/01 09:46:07;;;;;;;10.60;4.50;;;13.10;99.90;;;13.83;100.00;99026.88;4998120;28;20462;-79
2023/10/01 09:48:37;;;;;;;11.40;5.87;;;13.20;99.90;;;13.91;100.00;99034.66;4997891;28;20467;-79
2023/10/01 09:51:13;;;;;;;17.07;5.70;;;13.30;99.90;;;13.99;100.00;99026.66;4996747;28;20494;-79
2023/10/01 09:53:54;;;;;;;13.13;5.43;;;13.50;99.90;;;14.10;100.00;99036.69;4997796;28;20471;-79
2023/10/01 09:56:30;;;;;;;19.10;5.60;;;13.60;99.90;;;14.24;100.00;99033.22;4998371;28;20468;-79
2023/10/01 09:59:03;;;;;;;9.83;4.93;;;13.70;99.90;;;14.34;100.00;99040.84;4999101;28;20467;-79
2023/10/01 10:01:35;;;;;;;36.60;20.93;;;13.80;99.90;;;14.43;100.00;99045.81;4998519;28;20546;-79
2023/10/01 10:04:07;;;;;;;22.27;7.27;;;13.90;99.90;;;14.51;100.00;99037.78;4999405;28;20475;-79
2023/10/01 10:06:39;;;;;;;16.47;6.63;;;14.00;99.90;;;14.58;100.00;99032.56;4997392;28;20479;-79
2023/10/01 10:09:25;;;;;;;12.20;5.40;;;14.10;99.90;;;14.67;100.00;99031.47;4998672;28;20482;-79
2023/10/01 10:12:01;;;;;;;18.53;5.70;;;14.20;99.90;;;14.81;100.00;99033.22;4996984;28;20467;-79
2023/10/01 10:14:56;;;;;;;12.67;5.17;;;14.30;99.90;;;14.92;100.00;99024.81;4998963;28;20464;-79
2023/10/01 10:17:27;;;;;;;17.33;6.23;;;14.50;99.90;;;15.04;100.00;99027.72;5000148;28;20466;-79
2023/10/01 10:20:15;;;;;;;16.63;6.23;;;14.60;99.90;;;15.12;100.00;99019.69;4998757;28;21021;-78
2023/10/01 10:23:16;;;;;;;14.97;6.50;;;14.60;99.90;;;15.20;100.00;99013.47;5000224;28;20542;-79
2023/10/01 10:25:47;;;;;;;14.97;5.60;;;14.70;99.90;;;15.41;100.00;99023.94;5001077;28;20560;-79
2023/10/01 10:28:25;;;;;;;12.40;5.53;;;14.90;99.90;;;15.46;100.00;99019.69;5002583;28;20454;-79
2023/10/01 10:31:29;;;;;;;12.80;5.77;;;15.00;99.90;;;15.77;100.00;99026.38;5003702;28;20486;-80
2023/10/01 10:34:26;;;;;;;14.00;6.03;;;15.20;99.90;;;15.86;100.00;99025.22;5002491;28;20469;-79
2023/10/01 10:36:55;;;;;;;9.87;5.40;;;15.30;99.90;;;15.89;100.00;99023.00;5002418;28;20490;-79
2023/10/01 10:40:22;;;;;;;15.33;5.93;;;15.40;99.90;;;15.99;100.00;99023.44;5002310;28;20467;-79
2023/10/01 10:43:19;;;;;;;18.30;6.47;;;15.50;99.90;;;16.16;100.00;99031.81;5003365;28;20474;-81
2023/10/01 10:46:09;;;;;;;14.30;6.03;;;15.60;99.90;;;16.21;100.00;99032.03;5000760;28;20475;-80
2023/10/01 10:49:02;;;;;;;12.40;5.70;;;15.70;99.90;;;16.26;100.00;99034.06;5000581;28;20470;-81
2023/10/01 10:51:49;;;;;;;14.90;6.00;;;15.80;99.90;;;16.35;100.00;99023.13;5000985;28;20513;-80
2023/10/01 10:54:31;;;;;;;19.63;6.80;;;15.90;99.90;;;16.42;100.00;99017.84;5001717;28;20487;-81
2023/10/01 10:56:59;;;;;;;16.93;6.03;;;15.90;99.90;;;16.48;100.00;99028.47;5001680;28;21005;-81
2023/10/01 10:59:34;;;;;;;12.60;5.77;;;16.00;99.90;;;16.57;100.00;99022.00;5001925;28;20466;-81
2023/10/01 11:02:07;;;;;;;14.33;6.10;;;16.10;99.90;;;16.66;100.00;99025.25;5001127;28;20466;-81
2023/10/01 11:04:41;;;;;;;10.83;5.43;;;16.20;99.90;;;16.74;100.00;99024.25;5003276;28;20460;-81
2023/10/01 11:07:19;;;;;;;20.67;7.27;;;16.20;99.90;;;16.93;100.00;99026.91;5000412;28;20977;-81
2023/10/01 11:09:55;;;;;;;20.60;6.30;;;16.30;99.90;;;16.95;100.00;99026.69;5000845;28;20462;-80
2023/10/01 11:12:30;;;;;;;14.57;6.43;;;16.40;99.90;;;16.97;100.00;99027.31;5004407;28;20471;-80
2023/10/01 11:17:48;;;;;;;13.43;6.67;;;16.60;99.90;;;17.19;100.00;99020.78;5000857;28;20465;-80
2023/10/01 11:20:24;;;;;;;20.37;6.87;;;16.70;99.90;;;17.27;100.00;99020.56;5000685;28;20597;-81